createdAt,value
2017-12-21T00:00:33.993Z,33.80
2017-12-21T00:03:00.182Z,59.17
2017-12-21T00:05:26.360Z,49.53
2017-12-21T00:07:52.712Z,46.50
2017-12-21T00:10:19.125Z,41.87
2017-12-21T00:12:45.369Z,47.97
2017-12-21T00:15:11.810Z,39.57
2017-12-21T00:17:38.002Z,42.07
2017-12-21T00:20:04.185Z,38.20
2017-12-21T00:22:30.403Z,43.83
2017-12-21T00:24:56.715Z,46.90
2017-12-21T00:27:22.961Z,37.57
2017-12-21T00:29:49.185Z,36.93
2017-12-21T00:32:15.363Z,34.50
2017-12-21T00:34:41.647Z,34.03
2017-12-21T00:37:07.862Z,39.23
2017-12-21T00:39:34.308Z,33.10
2017-12-21T00:42:00.538Z,37.30
2017-12-21T00:44:26.777Z,38.83
2017-12-21T00:46:53.188Z,38.90
2017-12-21T00:49:19.429Z,41.37
2017-12-21T00:51:45.647Z,47.30
2017-12-21T00:54:11.839Z,35.57
2017-12-21T00:56:38.034Z,38.63
2017-12-21T00:59:04.255Z,35.37
2017-12-21T01:01:30.455Z,32.93
2017-12-21T01:03:56.768Z,28.77
2017-12-21T01:06:22.995Z,35.13
2017-12-21T01:08:49.194Z,32.38
2017-12-21T01:11:15.390Z,33.70
2017-12-21T01:13:41.619Z,44.90
2017-12-21T01:16:07.806Z,28.70
2017-12-21T01:18:33.978Z,32.23
2017-12-21T01:21:00.210Z,35.93
2017-12-21T01:23:26.414Z,37.77
2017-12-21T01:25:52.597Z,37.30
2017-12-21T01:28:18.820Z,31.23
2017-12-21T01:30:45.101Z,29.67
2017-12-21T01:33:11.285Z,37.47
2017-12-21T01:35:37.487Z,43.13
2017-12-21T01:38:03.660Z,35.30
2017-12-21T01:40:29.832Z,33.97
2017-12-21T01:42:56.064Z,33.63
2017-12-21T01:45:22.261Z,33.83
2017-12-21T01:47:48.485Z,27.00
2017-12-21T01:50:14.718Z,32.47
2017-12-21T01:52:40.927Z,33.47
2017-12-21T01:55:07.110Z,33.83
2017-12-21T01:57:33.288Z,38.77
2017-12-21T01:59:59.504Z,38.77
2017-12-21T02:02:25.704Z,33.33
2017-12-21T02:04:51.899Z,30.27
2017-12-21T02:07:18.114Z,26.87
2017-12-21T02:09:44.291Z,42.13
2017-12-21T02:12:10.482Z,31.97
2017-12-21T02:14:36.808Z,34.53
2017-12-21T02:17:02.988Z,33.97
2017-12-21T02:19:29.177Z,47.00
2017-12-21T02:21:55.404Z,36.90
2017-12-21T02:24:21.587Z,42.00
2017-12-21T02:26:47.785Z,34.97
2017-12-21T02:29:14.078Z,41.33
2017-12-21T02:31:40.418Z,29.60
2017-12-21T02:34:06.634Z,35.13
2017-12-21T02:36:32.859Z,34.93
2017-12-21T02:38:59.031Z,40.33
2017-12-21T02:41:25.224Z,31.17
2017-12-21T02:43:51.458Z,35.67
2017-12-21T02:46:17.666Z,32.60
2017-12-21T02:48:43.835Z,37.63
2017-12-21T02:51:10.044Z,29.90
2017-12-21T02:53:36.224Z,28.20
2017-12-21T02:56:02.416Z,37.43
2017-12-21T02:58:28.643Z,28.23
2017-12-21T03:00:54.918Z,37.00
2017-12-21T03:03:21.101Z,38.27
2017-12-21T03:05:47.322Z,31.77
2017-12-21T03:08:13.497Z,37.60
2017-12-21T03:10:39.683Z,35.80
2017-12-21T03:13:06.102Z,33.70
2017-12-21T03:15:32.288Z,30.10
2017-12-21T03:17:58.491Z,30.00
2017-12-21T03:20:24.712Z,28.37
2017-12-21T03:22:50.913Z,37.93
2017-12-21T03:25:17.632Z,29.80
2017-12-21T03:27:43.847Z,37.53
2017-12-21T03:30:10.043Z,33.87
2017-12-21T03:32:36.232Z,32.87
2017-12-21T03:35:02.553Z,35.67
2017-12-21T03:37:28.796Z,32.37
2017-12-21T03:39:55.019Z,32.33
2017-12-21T03:42:21.664Z,28.60
2017-12-21T03:44:47.844Z,28.07
2017-12-21T03:47:14.109Z,25.47
2017-12-21T03:49:40.328Z,28.90
2017-12-21T03:52:06.578Z,24.40
2017-12-21T03:54:32.960Z,31.73
2017-12-21T03:56:59.423Z,37.73
2017-12-21T03:59:25.599Z,32.47
2017-12-21T04:01:51.773Z,32.50
2017-12-21T04:04:17.996Z,26.60
2017-12-21T04:06:44.175Z,26.83
2017-12-21T04:09:10.347Z,31.93
2017-12-21T04:11:36.578Z,27.90
2017-12-21T04:14:02.834Z,21.33
2017-12-21T04:16:29.020Z,28.23
2017-12-21T04:18:55.232Z,26.40
2017-12-21T04:21:21.416Z,22.10
2017-12-21T04:23:47.593Z,28.07
2017-12-21T04:26:13.946Z,31.23
2017-12-21T04:28:40.212Z,25.33
2017-12-21T04:31:06.430Z,32.50
2017-12-21T04:33:32.677Z,31.30
2017-12-21T04:35:58.877Z,30.87
2017-12-21T04:38:25.060Z,26.13
2017-12-21T04:40:51.255Z,29.03
2017-12-21T04:43:17.455Z,41.97
2017-12-21T04:45:43.637Z,30.57
2017-12-21T04:48:09.862Z,33.87
2017-12-21T04:50:36.044Z,29.47
2017-12-21T04:53:02.267Z,25.10
2017-12-21T04:55:28.523Z,27.13
2017-12-21T04:57:54.738Z,23.63
2017-12-21T05:00:20.930Z,32.27
2017-12-21T05:02:47.208Z,27.00
2017-12-21T05:05:13.595Z,23.40
2017-12-21T05:07:39.784Z,28.63
2017-12-21T05:10:06.016Z,27.33
2017-12-21T05:12:32.351Z,24.13
2017-12-21T05:14:58.752Z,24.93
2017-12-21T05:17:25.252Z,34.83
2017-12-21T05:19:51.618Z,27.67
2017-12-21T05:22:17.858Z,23.70
2017-12-21T05:24:44.279Z,30.40
2017-12-21T05:27:10.544Z,27.80
2017-12-21T05:29:36.721Z,32.70
2017-12-21T05:32:02.936Z,35.20
2017-12-21T05:34:29.108Z,31.90
2017-12-21T05:36:55.308Z,32.53
2017-12-21T05:39:21.549Z,29.30
2017-12-21T05:41:47.726Z,34.53
2017-12-21T05:44:14.108Z,33.53
2017-12-21T05:46:40.504Z,32.10
2017-12-21T05:49:06.764Z,41.47
2017-12-21T05:51:32.953Z,29.83
2017-12-21T05:53:59.223Z,47.50
2017-12-21T05:56:25.472Z,60.43
2017-12-21T05:58:51.681Z,67.37
2017-12-21T06:01:18.123Z,71.80
2017-12-21T06:03:44.309Z,65.73
2017-12-21T06:06:10.501Z,46.80
2017-12-21T06:08:36.714Z,32.67
2017-12-21T06:11:02.914Z,32.43
2017-12-21T06:13:29.123Z,40.77
2017-12-21T06:15:55.449Z,32.20
2017-12-21T06:18:21.649Z,42.30
2017-12-21T06:20:47.866Z,62.07
2017-12-21T06:23:14.189Z,31.87
2017-12-21T06:25:40.370Z,37.47
2017-12-21T06:28:06.561Z,25.37
2017-12-21T06:30:32.779Z,28.63
2017-12-21T06:32:59.058Z,35.70
2017-12-21T06:35:25.238Z,28.43
2017-12-21T06:37:51.462Z,31.77
2017-12-21T06:40:17.686Z,28.73
2017-12-21T06:42:43.889Z,40.47
2017-12-21T06:45:10.118Z,32.73
2017-12-21T06:47:36.310Z,35.27
2017-12-21T06:50:02.499Z,36.70
2017-12-21T06:52:28.717Z,30.53
2017-12-21T06:54:54.889Z,27.87
2017-12-21T06:57:21.071Z,32.10
2017-12-21T06:59:47.314Z,27.47
2017-12-21T07:02:13.600Z,20.77
2017-12-21T07:04:39.786Z,32.50
2017-12-21T07:07:06.059Z,23.80
2017-12-21T07:09:32.254Z,35.13
2017-12-21T07:11:58.465Z,29.83
2017-12-21T07:14:24.693Z,34.87
2017-12-21T07:16:50.882Z,39.13
2017-12-21T07:19:17.197Z,36.33
2017-12-21T07:21:43.438Z,39.67
2017-12-21T07:24:09.627Z,28.67
2017-12-21T07:26:35.818Z,30.27
2017-12-21T07:29:02.062Z,36.50
2017-12-21T07:31:28.266Z,51.93
2017-12-21T07:33:54.584Z,36.00
2017-12-21T07:36:20.805Z,26.03
2017-12-21T07:38:47.037Z,29.33
2017-12-21T07:41:13.304Z,25.90
2017-12-21T07:43:39.713Z,36.03
2017-12-21T07:46:05.891Z,28.57
2017-12-21T07:48:32.192Z,27.50
2017-12-21T07:50:58.421Z,25.40
2017-12-21T07:53:24.688Z,27.83
2017-12-21T07:55:50.854Z,39.67
2017-12-21T07:58:17.086Z,39.27
2017-12-21T08:00:43.284Z,49.23
2017-12-21T08:03:09.505Z,49.73
2017-12-21T08:05:35.740Z,51.07
2017-12-21T08:08:01.926Z,49.60
2017-12-21T08:10:28.144Z,38.20
2017-12-21T08:12:54.353Z,48.70
2017-12-21T08:15:20.533Z,30.93
2017-12-21T08:17:46.706Z,30.03
2017-12-21T08:20:12.929Z,24.60
2017-12-21T08:22:39.122Z,45.77
2017-12-21T08:25:05.476Z,37.47
2017-12-21T08:27:31.729Z,19.23
2017-12-21T08:29:57.910Z,27.43
2017-12-21T08:32:24.103Z,29.50
2017-12-21T08:34:50.325Z,30.13
2017-12-21T08:37:16.640Z,29.63
2017-12-21T08:39:42.829Z,39.33
2017-12-21T08:42:09.058Z,26.60
2017-12-21T08:44:35.253Z,24.77
2017-12-21T08:47:01.437Z,26.60
2017-12-21T08:49:27.701Z,30.00
2017-12-21T08:51:53.979Z,29.33
2017-12-21T08:54:20.157Z,53.60
2017-12-21T08:56:46.366Z,32.73
2017-12-21T08:59:12.538Z,65.77
2017-12-21T09:01:38.706Z,51.07
2017-12-21T09:04:04.925Z,42.17
2017-12-21T09:06:31.106Z,23.23
2017-12-21T09:08:57.378Z,38.57
2017-12-21T09:11:23.584Z,34.77
2017-12-21T09:13:49.768Z,54.93
2017-12-21T09:16:15.954Z,67.60
2017-12-21T09:18:42.164Z,26.50
2017-12-21T09:21:08.330Z,39.90
2017-12-21T09:23:34.490Z,27.77
2017-12-21T09:26:00.722Z,34.93
2017-12-21T09:28:26.900Z,55.60
2017-12-21T09:30:53.103Z,25.77
2017-12-21T09:33:19.455Z,44.17
2017-12-21T09:35:45.649Z,36.23
2017-12-21T09:38:11.847Z,42.37
2017-12-21T09:40:38.078Z,32.20
2017-12-21T09:43:04.269Z,24.33
2017-12-21T09:45:30.453Z,33.27
2017-12-21T09:47:56.677Z,24.37
2017-12-21T09:50:22.846Z,31.50
2017-12-21T09:52:49.060Z,19.63
2017-12-21T09:55:15.283Z,27.40
2017-12-21T09:57:41.454Z,40.57
2017-12-21T10:00:07.637Z,33.70
2017-12-21T10:02:33.855Z,43.00
2017-12-21T10:05:00.018Z,28.47
2017-12-21T10:07:26.190Z,26.87
2017-12-21T10:09:52.408Z,21.97
2017-12-21T10:12:18.592Z,32.67
2017-12-21T10:14:44.758Z,54.33
2017-12-21T10:17:10.975Z,33.20
2017-12-21T10:19:37.156Z,29.47
2017-12-21T10:22:03.337Z,35.63
2017-12-21T10:24:29.549Z,31.67
2017-12-21T10:26:55.719Z,42.63
2017-12-21T10:29:21.899Z,39.03
2017-12-21T10:31:48.150Z,33.93
2017-12-21T10:34:14.355Z,60.03
2017-12-21T10:36:40.550Z,32.60
2017-12-21T10:39:06.768Z,23.60
2017-12-21T10:41:32.965Z,28.57
2017-12-21T10:43:59.172Z,21.47
2017-12-21T10:46:25.397Z,23.80
2017-12-21T10:48:51.603Z,14.07
2017-12-21T10:51:17.800Z,24.63
2017-12-21T10:53:44.012Z,22.77
2017-12-21T10:56:10.198Z,23.93
2017-12-21T10:58:36.387Z,14.57
2017-12-21T11:01:02.631Z,29.00
2017-12-21T11:03:28.842Z,32.97
2017-12-21T11:05:55.052Z,30.23
2017-12-21T11:08:21.349Z,29.00
2017-12-21T11:10:47.527Z,18.57
2017-12-21T11:13:13.726Z,22.00
2017-12-21T11:15:39.929Z,31.27
2017-12-21T11:18:06.113Z,22.00
2017-12-21T11:20:32.284Z,25.07
2017-12-21T11:22:58.498Z,22.63
2017-12-21T11:25:24.725Z,33.83
2017-12-21T11:27:50.924Z,23.47
2017-12-21T11:30:17.157Z,36.90
2017-12-21T11:32:43.357Z,24.63
2017-12-21T11:35:09.528Z,28.70
2017-12-21T11:37:35.764Z,27.47
2017-12-21T11:40:01.948Z,19.63
2017-12-21T11:42:28.134Z,23.07
2017-12-21T11:44:54.354Z,43.27
2017-12-21T11:47:20.546Z,32.43
2017-12-21T11:49:46.756Z,24.87
2017-12-21T11:52:12.960Z,26.87
2017-12-21T11:54:39.134Z,24.47
2017-12-21T11:57:05.318Z,21.23
2017-12-21T11:59:31.569Z,25.50
2017-12-21T12:01:57.751Z,30.70
2017-12-21T12:04:23.943Z,39.53
2017-12-21T12:06:50.163Z,25.20
2017-12-21T12:09:16.350Z,27.47
2017-12-21T12:11:42.518Z,31.37
2017-12-21T12:14:08.742Z,24.10
2017-12-21T12:16:34.933Z,22.63
2017-12-21T12:19:01.129Z,34.70
2017-12-21T12:21:27.348Z,22.57
2017-12-21T12:23:53.531Z,32.47
2017-12-21T12:26:19.840Z,29.60
2017-12-21T12:28:46.040Z,35.17
2017-12-21T12:31:12.248Z,40.87
2017-12-21T12:33:38.439Z,33.47
2017-12-21T12:36:04.651Z,28.33
2017-12-21T12:38:30.852Z,29.93
2017-12-21T12:40:57.067Z,27.17
2017-12-21T12:43:23.265Z,36.70
2017-12-21T12:45:49.487Z,23.33
2017-12-21T12:48:15.664Z,19.93
2017-12-21T12:50:41.890Z,23.23
2017-12-21T12:53:08.110Z,26.10
2017-12-21T12:55:34.283Z,18.57
2017-12-21T12:58:00.472Z,23.80
2017-12-21T13:00:26.689Z,53.30
2017-12-21T13:02:52.854Z,55.17
2017-12-21T13:05:19.028Z,26.53
2017-12-21T13:07:45.326Z,36.13
2017-12-21T13:10:11.519Z,32.70
2017-12-21T13:12:37.701Z,35.77
2017-12-21T13:15:03.925Z,37.13
2017-12-21T13:17:30.109Z,45.03
2017-12-21T13:19:56.298Z,41.30
2017-12-21T13:22:22.507Z,54.03
2017-12-21T13:24:48.732Z,65.87
2017-12-21T13:27:14.908Z,70.37
2017-12-21T13:29:41.158Z,46.53
2017-12-21T13:32:07.341Z,67.80
2017-12-21T13:34:33.533Z,41.93
2017-12-21T13:36:59.750Z,38.87
2017-12-21T13:39:25.940Z,30.87
2017-12-21T13:41:52.118Z,37.70
2017-12-21T13:44:18.547Z,72.87
2017-12-21T13:46:44.745Z,53.73
2017-12-21T13:49:10.931Z,64.73
2017-12-21T13:51:37.150Z,37.33
2017-12-21T13:54:03.330Z,51.53
2017-12-21T13:56:29.529Z,54.50
2017-12-21T13:58:55.759Z,39.13
2017-12-21T14:01:21.947Z,43.83
2017-12-21T14:03:48.123Z,39.70
2017-12-21T14:06:14.425Z,36.17
2017-12-21T14:08:40.603Z,43.77
2017-12-21T14:11:06.777Z,56.67
2017-12-21T14:13:33.043Z,55.60
2017-12-21T14:15:59.222Z,45.00
2017-12-21T14:18:25.394Z,44.13
2017-12-21T14:20:51.597Z,51.70
2017-12-21T14:23:17.778Z,62.80
2017-12-21T14:25:43.958Z,85.50
2017-12-21T14:28:10.168Z,69.50
2017-12-21T14:30:36.351Z,68.47
2017-12-21T14:33:02.549Z,68.57
2017-12-21T14:35:28.764Z,65.87
2017-12-21T14:37:54.927Z,81.73
2017-12-21T14:40:21.171Z,93.27
2017-12-21T14:42:47.401Z,75.53
2017-12-21T14:45:13.581Z,77.73
2017-12-21T14:47:39.767Z,69.57
2017-12-21T14:50:05.982Z,66.33
2017-12-21T14:52:32.186Z,71.47
2017-12-21T14:54:58.367Z,57.57
2017-12-21T14:57:24.601Z,71.47
2017-12-21T14:59:50.798Z,52.30
2017-12-21T15:02:16.983Z,61.53
2017-12-21T15:04:43.195Z,71.37
2017-12-21T15:07:09.375Z,89.17
2017-12-21T15:09:35.558Z,67.93
2017-12-21T15:12:01.791Z,88.30
2017-12-21T15:14:27.966Z,85.30
2017-12-21T15:16:54.172Z,79.50
2017-12-21T15:19:20.373Z,99.13
2017-12-21T15:21:46.571Z,227.03
2017-12-21T15:24:12.763Z,132.80
2017-12-21T15:26:39.011Z,206.67
2017-12-21T15:29:05.234Z,159.87
2017-12-21T15:31:31.408Z,77.73
2017-12-21T15:33:57.625Z,63.30
2017-12-21T15:36:23.800Z,66.30
2017-12-21T15:38:49.990Z,74.10
2017-12-21T15:41:16.233Z,96.43
2017-12-21T15:43:42.438Z,123.17
2017-12-21T15:46:08.617Z,117.70
2017-12-21T15:48:34.887Z,87.73
2017-12-21T15:51:01.087Z,134.97
2017-12-21T15:53:27.265Z,56.87
2017-12-21T15:55:53.520Z,71.67
2017-12-21T15:58:19.750Z,79.97
2017-12-21T16:00:45.936Z,57.93
2017-12-21T16:03:12.254Z,53.33
2017-12-21T16:05:38.437Z,60.27
2017-12-21T16:08:04.627Z,62.13
2017-12-21T16:10:30.842Z,58.67
2017-12-21T16:12:57.039Z,66.07
2017-12-21T16:15:23.197Z,60.77
2017-12-21T16:17:49.409Z,61.13
2017-12-21T16:20:15.595Z,50.53
2017-12-21T16:22:41.783Z,48.23
2017-12-21T16:25:07.986Z,46.10
2017-12-21T16:27:34.160Z,50.10
2017-12-21T16:30:00.332Z,54.73
2017-12-21T16:32:26.548Z,56.97
2017-12-21T16:34:52.728Z,56.37
2017-12-21T16:37:18.929Z,55.07
2017-12-21T16:39:45.149Z,56.60
2017-12-21T16:42:11.316Z,51.77
2017-12-21T16:44:37.496Z,44.83
2017-12-21T16:47:03.732Z,52.93
2017-12-21T16:49:29.920Z,52.10
2017-12-21T16:51:56.218Z,58.37
2017-12-21T16:54:22.419Z,57.37
2017-12-21T16:56:48.591Z,41.57
2017-12-21T16:59:14.774Z,48.60
2017-12-21T17:01:40.984Z,53.97
2017-12-21T17:04:07.176Z,45.57
2017-12-21T17:06:33.361Z,68.33
2017-12-21T17:08:59.580Z,59.80
2017-12-21T17:11:25.781Z,50.10
2017-12-21T17:13:51.961Z,61.60
2017-12-21T17:16:18.174Z,54.23
2017-12-21T17:18:44.405Z,49.77
2017-12-21T17:21:10.602Z,54.80
2017-12-21T17:23:36.847Z,39.13
2017-12-21T17:26:03.202Z,44.67
2017-12-21T17:28:29.390Z,47.73
2017-12-21T17:30:55.595Z,44.30
2017-12-21T17:33:21.781Z,55.53
2017-12-21T17:35:47.967Z,41.17
2017-12-21T17:38:14.206Z,41.30
2017-12-21T17:40:40.390Z,54.63
2017-12-21T17:43:06.570Z,49.43
2017-12-21T17:45:32.805Z,58.53
2017-12-21T17:47:59.005Z,66.23
2017-12-21T17:50:25.192Z,49.47
2017-12-21T17:52:51.402Z,69.17
2017-12-21T17:55:17.601Z,46.93
2017-12-21T17:57:43.985Z,51.80
2017-12-21T18:00:10.212Z,54.03
2017-12-21T18:02:36.429Z,53.37
2017-12-21T18:05:02.626Z,63.43
2017-12-21T18:07:28.845Z,53.50
2017-12-21T18:09:55.038Z,89.93
2017-12-21T18:12:21.276Z,74.07
2017-12-21T18:14:47.496Z,55.83
2017-12-21T18:17:13.677Z,48.87
2017-12-21T18:19:39.848Z,44.93
2017-12-21T18:22:06.070Z,58.73
2017-12-21T18:24:32.245Z,66.33
2017-12-21T18:26:58.559Z,42.50
2017-12-21T18:29:24.798Z,52.60
2017-12-21T18:31:50.986Z,48.57
2017-12-21T18:34:17.167Z,46.80
2017-12-21T18:36:43.402Z,58.27
2017-12-21T18:39:09.568Z,44.80
2017-12-21T18:41:35.758Z,49.23
2017-12-21T18:44:01.973Z,50.27
2017-12-21T18:46:28.139Z,51.13
2017-12-21T18:48:54.322Z,55.03
2017-12-21T18:51:20.529Z,60.73
2017-12-21T18:53:46.710Z,62.23
2017-12-21T18:56:12.881Z,45.43
2017-12-21T18:58:39.085Z,55.93
2017-12-21T19:01:05.268Z,49.33
2017-12-21T19:03:31.538Z,69.40
2017-12-21T19:05:57.756Z,52.07
2017-12-21T19:08:23.931Z,62.13
2017-12-21T19:10:50.100Z,45.53
2017-12-21T19:13:16.312Z,50.80
2017-12-21T19:15:42.500Z,46.63
2017-12-21T19:18:08.699Z,55.93
2017-12-21T19:20:34.949Z,46.07
2017-12-21T19:23:01.137Z,40.90
2017-12-21T19:25:27.301Z,53.87
2017-12-21T19:27:53.636Z,55.80
2017-12-21T19:30:19.831Z,63.50
2017-12-21T19:32:46.046Z,46.60
2017-12-21T19:35:12.261Z,47.50
2017-12-21T19:37:38.442Z,52.83
2017-12-21T19:40:04.625Z,56.10
2017-12-21T19:42:30.835Z,43.23
2017-12-21T19:44:57.004Z,59.77
2017-12-21T19:47:23.167Z,56.37
2017-12-21T19:49:49.388Z,56.53
2017-12-21T19:52:15.568Z,58.20
2017-12-21T19:54:41.772Z,55.37
2017-12-21T19:57:08.012Z,60.33
2017-12-21T19:59:34.199Z,79.87
2017-12-21T20:02:00.385Z,84.50
2017-12-21T20:04:26.609Z,96.77
2017-12-21T20:06:52.875Z,88.93
2017-12-21T20:09:19.065Z,80.07
2017-12-21T20:11:45.290Z,69.90
2017-12-21T20:14:11.480Z,52.37
2017-12-21T20:16:37.678Z,49.60
2017-12-21T20:19:03.879Z,64.70
2017-12-21T20:21:30.054Z,48.40
2017-12-21T20:23:56.246Z,55.27
2017-12-21T20:26:22.475Z,50.13
2017-12-21T20:28:48.685Z,54.80
2017-12-21T20:31:14.873Z,63.43
2017-12-21T20:33:41.122Z,58.13
2017-12-21T20:36:07.303Z,89.37
2017-12-21T20:38:33.487Z,65.23
2017-12-21T20:40:59.727Z,75.13
2017-12-21T20:43:25.917Z,63.67
2017-12-21T20:45:52.089Z,65.27
2017-12-21T20:48:18.283Z,77.35
2017-12-21T20:50:44.590Z,58.50
2017-12-21T20:53:10.774Z,64.03
2017-12-21T20:55:36.992Z,60.55
2017-12-21T20:58:03.155Z,66.97
2017-12-21T21:00:29.327Z,55.73
2017-12-21T21:02:55.539Z,57.13
2017-12-21T21:05:21.714Z,55.83
2017-12-21T21:07:48.010Z,73.10
2017-12-21T21:10:14.241Z,64.07
2017-12-21T21:12:40.436Z,53.97
2017-12-21T21:15:06.620Z,61.40
2017-12-21T21:17:32.849Z,49.97
2017-12-21T21:19:59.066Z,56.53
2017-12-21T21:22:25.245Z,56.60
2017-12-21T21:24:51.435Z,62.47
2017-12-21T21:27:17.612Z,70.90
2017-12-21T21:29:44.990Z,59.83
2017-12-21T21:32:12.806Z,58.60
2017-12-21T21:34:40.212Z,76.53
2017-12-21T21:37:07.508Z,76.47
2017-12-21T21:39:33.862Z,76.47
2017-12-21T21:42:00.876Z,84.00
2017-12-21T21:44:27.971Z,75.87
2017-12-21T21:46:55.797Z,85.17
2017-12-21T21:49:23.427Z,89.83
2017-12-21T21:51:50.789Z,92.30
2017-12-21T21:54:18.177Z,87.20
2017-12-21T21:56:45.670Z,99.20
2017-12-21T21:59:12.030Z,102.90
2017-12-21T22:01:38.257Z,74.40
2017-12-21T22:04:04.445Z,90.73
2017-12-21T22:06:30.642Z,71.27
2017-12-21T22:08:56.876Z,76.17
2017-12-21T22:11:23.052Z,83.40
2017-12-21T22:13:49.263Z,87.37
2017-12-21T22:16:15.496Z,87.13
2017-12-21T22:18:41.676Z,75.63
2017-12-21T22:21:07.852Z,108.20
2017-12-21T22:23:34.083Z,91.13
2017-12-21T22:26:00.296Z,87.43
2017-12-21T22:28:26.623Z,89.13
2017-12-21T22:30:52.835Z,94.07
2017-12-21T22:33:19.029Z,86.87
2017-12-21T22:35:45.267Z,93.07
2017-12-21T22:38:11.483Z,95.50
2017-12-21T22:40:37.683Z,102.97
2017-12-21T22:43:03.909Z,109.20
2017-12-21T22:45:30.116Z,105.27
2017-12-21T22:47:56.279Z,96.83
2017-12-21T22:50:22.537Z,90.10
2017-12-21T22:52:48.718Z,82.30
2017-12-21T22:55:14.936Z,96.50
2017-12-21T22:57:41.168Z,86.80
2017-12-21T23:00:07.350Z,85.77
2017-12-21T23:02:33.532Z,68.03
2017-12-21T23:04:59.767Z,85.33
2017-12-21T23:07:25.953Z,72.00
2017-12-21T23:09:52.171Z,73.67
2017-12-21T23:12:18.371Z,81.87
2017-12-21T23:14:44.541Z,72.77
2017-12-21T23:17:10.732Z,79.73
2017-12-21T23:19:36.968Z,77.17
2017-12-21T23:22:03.140Z,81.07
2017-12-21T23:24:29.318Z,74.60
2017-12-21T23:26:55.559Z,67.13
2017-12-21T23:29:21.746Z,83.97
2017-12-21T23:31:47.942Z,60.53
2017-12-21T23:34:14.146Z,67.20
2017-12-21T23:36:40.329Z,66.83
2017-12-21T23:39:06.502Z,62.73
2017-12-21T23:41:32.746Z,74.00
2017-12-21T23:43:58.929Z,62.13
2017-12-21T23:46:25.149Z,69.53
2017-12-21T23:48:51.356Z,58.40
2017-12-21T23:51:17.534Z,56.43
2017-12-21T23:53:43.717Z,78.50
2017-12-21T23:56:09.944Z,81.07
2017-12-21T23:58:36.108Z,60.53
